Time;durP1;ratioP1;P1;durP2;ratioP2;P2;SDS_P1;SDS_P2;PMS_P1;PMS_P2;Temp;Humidity;BMP_temperature;BMP_pressure;BME280_temperature;BME280_humidity;BME280_pressure;Samples;Min_cycle;Max_cycle;Signal;HPM_P1;HPM_P2
2022/10/29 00:02:10;;;;;;;17.27;8.95;;;;;;;10.66;100.00;94756.66;5052067;28;20045;-66
2022/10/29 00:04:37;;;;;;;38.97;21.35;;;;;;;10.65;100.00;94746.84;5053184;28;20052;-68
2022/10/29 00:07:03;;;;;;;65.88;33.13;;;;;;;10.68;100.00;94751.53;5061516;28;20551;-65
2022/10/29 00:09:30;;;;;;;22.63;11.00;;;;;;;10.79;100.00;94757.03;5058360;28;20074;-66
2022/10/29 00:11:57;;;;;;;17.17;8.70;;;;;;;10.83;100.00;94759.78;5057725;28;20053;-66
2022/10/29 00:14:23;;;;;;;21.27;9.27;;;;;;;10.66;100.00;94761.34;5065675;28;20041;-70
2022/10/29 00:16:50;;;;;;;21.15;8.93;;;;;;;10.43;100.00;94753.56;5049667;28;20053;-69
2022/10/29 00:19:16;;;;;;;17.35;8.95;;;;;;;10.43;100.00;94748.84;5062978;28;20044;-66
2022/10/29 00:21:43;;;;;;;20.17;9.20;;;;;;;10.52;100.00;94753.94;5049816;28;20452;-66
2022/10/29 00:24:10;;;;;;;19.20;9.07;;;;;;;10.51;100.00;94757.88;5050031;28;20045;-66
2022/10/29 00:26:37;;;;;;;20.90;9.35;;;;;;;10.58;100.00;94753.16;5050401;28;20071;-70
2022/10/29 00:29:03;;;;;;;20.88;9.45;;;;;;;10.68;100.00;94751.53;5049467;28;20044;-67
2022/10/29 00:31:30;;;;;;;20.80;9.55;;;;;;;10.67;100.00;94754.72;5050255;28;20049;-66
2022/10/29 00:33:57;;;;;;;18.03;9.20;;;;;;;10.69;100.00;94746.84;5049688;28;20118;-66
2022/10/29 00:36:26;;;;;;;19.98;8.98;;;;;;;10.70;100.00;94751.16;5066686;28;20041;-68
2022/10/29 00:38:53;;;;;;;16.40;9.10;;;;;;;10.81;100.00;94751.91;5049605;28;20053;-71
2022/10/29 00:41:27;;;;;;;18.27;8.98;;;;;;;10.70;100.00;94754.69;5050320;28;20049;-68
2022/10/29 00:44:35;;;;;;;22.13;10.52;;;;;;;10.79;100.00;94759.78;5069381;28;20045;-66
2022/10/29 00:47:28;;;;;;;17.53;8.97;;;;;;;10.83;100.00;94757.81;5026945;28;20041;-68
2022/10/29 00:50:06;;;;;;;17.83;8.82;;;;;;;10.87;100.00;94752.31;5042723;28;20064;-65
2022/10/29 00:52:39;;;;;;;16.92;9.18;;;;;;;10.84;100.00;94755.81;5053606;28;20051;-67
2022/10/29 00:55:09;;;;;;;19.80;9.00;;;;;;;10.83;100.00;94752.31;5069290;28;20914;-66
2022/10/29 00:57:42;;;;;;;19.58;9.10;;;;;;;10.70;100.00;94756.66;5069910;28;20044;-67
2022/10/29 01:00:09;;;;;;;16.77;8.93;;;;;;;10.77;100.00;94753.91;5069570;28;20499;-67
2022/10/29 01:02:37;;;;;;;21.98;8.82;;;;;;;10.71;100.00;94748.03;5054874;28;20044;-66
2022/10/29 01:05:04;;;;;;;16.45;8.35;;;;;;;10.82;100.00;94758.97;5049517;28;20057;-66
2022/10/29 01:07:31;;;;;;;17.80;8.60;;;;;;;10.77;100.00;94754.66;5054841;28;20401;-67
2022/10/29 01:09:58;;;;;;;16.27;8.70;;;;;;;10.67;100.00;94749.22;5063129;28;20049;-71
2022/10/29 01:12:51;;;;;;;14.03;7.83;;;;;;;10.75;100.00;94746.03;5066046;28;20061;-68
2022/10/29 01:15:46;;;;;;;20.33;8.23;;;;;;;10.76;100.00;94757.81;5052692;28;21321;-66
2022/10/29 01:18:20;;;;;;;16.25;8.15;;;;;;;10.87;100.00;94747.59;5052687;28;20063;-67
2022/10/29 01:21:15;;;;;;;20.08;8.38;;;;;;;10.97;100.00;94737.75;5053188;28;20110;-66
2022/10/29 01:24:11;;;;;;;15.35;8.10;;;;;;;11.05;100.00;94735.78;5052892;28;20045;-68
2022/10/29 01:26:41;;;;;;;15.53;7.97;;;;;;;11.00;100.00;94729.47;5025585;28;20072;-67
2022/10/29 01:29:33;;;;;;;17.65;8.27;;;;;;;10.89;100.00;94730.72;5032702;28;20243;-68
2022/10/29 01:32:05;;;;;;;16.05;8.23;;;;;;;10.84;100.00;94736.59;5050598;28;20098;-67
2022/10/29 01:34:48;;;;;;;16.70;8.07;;;;;;;10.81;100.00;94742.91;5054102;28;20059;-67
2022/10/29 01:37:23;;;;;;;17.50;8.02;;;;;;;10.82;100.00;94734.25;5065465;28;21828;-66
2022/10/29 01:40:00;;;;;;;16.87;8.10;;;;;;;10.77;100.00;94734.69;5053703;28;20485;-67
2022/10/29 01:42:39;;;;;;;15.63;7.90;;;;;;;10.78;100.00;94723.31;5067352;28;20048;-70
2022/10/29 01:45:15;;;;;;;17.13;8.20;;;;;;;10.87;100.00;94735.84;5050440;28;21533;-67
2022/10/29 01:48:12;;;;;;;16.67;7.85;;;;;;;10.89;100.00;94720.50;5052557;28;20048;-71
2022/10/29 01:50:43;;;;;;;14.77;7.80;;;;;;;10.95;100.00;94726.38;5069414;28;20045;-67
2022/10/29 01:53:11;;;;;;;14.80;7.67;;;;;;;10.89;100.00;94727.97;5064699;28;21542;-66
2022/10/29 01:55:37;;;;;;;17.30;7.57;;;;;;;10.93;100.00;94717.75;5053032;28;20057;-66
2022/10/29 01:58:05;;;;;;;17.63;7.80;;;;;;;10.93;100.00;94715.78;5051973;28;20701;-70
2022/10/29 02:00:53;;;;;;;19.25;9.68;;;;;;;10.97;100.00;94715.78;5055942;28;20040;-67
2022/10/29 02:03:36;;;;;;;18.27;8.20;;;;;;;11.05;100.00;94711.03;5054297;28;20599;-67
2022/10/29 02:06:23;;;;;;;12.57;7.27;;;;;;;11.06;100.00;94704.34;5056065;28;20053;-70
2022/10/29 02:09:21;;;;;;;15.55;7.57;;;;;;;11.07;100.00;94705.94;5060733;28;20056;-70
2022/10/29 02:12:05;;;;;;;13.40;7.38;;;;;;;10.97;100.00;94702.81;5050765;28;20059;-70
2022/10/29 02:14:37;;;;;;;17.27;7.78;;;;;;;10.98;100.00;94709.09;5051383;28;20063;-70
2022/10/29 02:17:05;;;;;;;17.58;8.13;;;;;;;10.90;100.00;94708.34;5052233;28;20043;-67
2022/10/29 02:19:34;;;;;;;15.93;6.83;;;;;;;10.89;100.00;94706.00;5052387;28;20090;-72
2022/10/29 02:22:01;;;;;;;17.73;7.50;;;;;;;10.88;100.00;94696.19;5051819;28;20045;-67
2022/10/29 02:24:28;;;;;;;15.68;7.63;;;;;;;10.92;100.00;94694.22;5051118;28;20047;-68
2022/10/29 02:26:55;;;;;;;15.27;7.18;;;;;;;10.90;100.00;94691.09;5051836;28;20072;-67
2022/10/29 02:29:21;;;;;;;17.15;6.97;;;;;;;10.91;100.00;94693.44;5052393;28;20037;-67
2022/10/29 02:31:48;;;;;;;63.90;34.53;;;;;;;10.98;100.00;94695.34;5051263;28;20417;-68
2022/10/29 02:34:15;;;;;;;22.38;12.13;;;;;;;10.98;100.00;94684.38;5052610;28;20041;-70
2022/10/29 02:36:41;;;;;;;19.35;7.18;;;;;;;10.94;100.00;94681.63;5055906;28;20063;-68
2022/10/29 02:39:08;;;;;;;14.77;6.97;;;;;;;11.03;100.00;94683.16;5072237;28;20055;-66
2022/10/29 02:41:35;;;;;;;15.30;7.00;;;;;;;11.08;100.00;94683.53;5063935;28;20048;-66
2022/10/29 02:44:01;;;;;;;13.43;6.40;;;;;;;11.04;100.00;94685.53;5058453;28;20082;-67
2022/10/29 02:46:29;;;;;;;13.30;6.28;;;;;;;10.96;100.00;94684.00;5051510;28;20049;-68
2022/10/29 02:48:55;;;;;;;16.73;6.63;;;;;;;10.84;100.00;94684.44;5051535;28;20051;-69
2022/10/29 02:51:22;;;;;;;19.48;6.80;;;;;;;10.90;100.00;94685.59;5066947;28;20049;-67
2022/10/29 02:53:49;;;;;;;14.90;6.55;;;;;;;10.84;100.00;94690.69;5051358;28;20049;-66
2022/10/29 02:56:15;;;;;;;13.70;6.37;;;;;;;10.78;100.00;94682.13;5051917;28;20542;-66
2022/10/29 02:58:42;;;;;;;14.50;6.95;;;;;;;10.67;100.00;94684.09;5051119;28;20049;-71
2022/10/29 03:01:08;;;;;;;16.90;6.70;;;;;;;10.70;100.00;94683.31;5059653;28;20067;-69
2022/10/29 03:03:35;;;;;;;13.70;7.13;;;;;;;10.76;100.00;94676.22;5057755;28;20049;-67
2022/10/29 03:06:02;;;;;;;14.18;6.63;;;;;;;10.69;100.00;94675.47;5055016;28;20044;-72
2022/10/29 03:08:29;;;;;;;14.57;6.87;;;;;;;10.64;100.00;94667.66;5067624;28;20547;-66
2022/10/29 03:10:56;;;;;;;13.45;6.88;;;;;;;10.59;100.00;94666.88;5050960;28;20074;-67
2022/10/29 03:13:22;;;;;;;14.05;7.78;;;;;;;10.58;100.00;94667.25;5050112;28;20041;-71
2022/10/29 03:15:49;;;;;;;17.75;7.60;;;;;;;10.36;100.00;94672.84;5055808;28;20440;-68
2022/10/29 03:18:16;;;;;;;18.08;8.57;;;;;;;10.22;100.00;94672.81;5059963;28;20045;-66
2022/10/29 03:20:44;;;;;;;15.77;8.27;;;;;;;10.11;100.00;94670.09;5050596;28;20056;-66
2022/10/29 03:23:11;;;;;;;16.15;8.30;;;;;;;10.29;100.00;94667.31;5051196;28;20056;-66
2022/10/29 03:25:37;;;;;;;17.02;8.50;;;;;;;10.32;100.00;94660.28;5051254;28;20045;-66
2022/10/29 03:28:04;;;;;;;16.55;7.70;;;;;;;10.32;100.00;94658.34;5053307;28;20153;-71
2022/10/29 03:30:31;;;;;;;16.45;8.27;;;;;;;10.30;100.00;94662.63;5059485;28;20491;-69
2022/10/29 03:32:58;;;;;;;16.20;7.47;;;;;;;10.29;100.00;94663.81;5050521;28;20045;-66
2022/10/29 03:35:25;;;;;;;13.70;7.70;;;;;;;10.20;100.00;94667.75;5050982;28;20056;-66
2022/10/29 03:37:52;;;;;;;13.38;7.68;;;;;;;10.16;100.00;94664.22;5065669;28;20089;-66
2022/10/29 03:40:19;;;;;;;19.65;7.40;;;;;;;10.08;100.00;94675.56;5063662;28;20057;-67
2022/10/29 03:42:45;;;;;;;18.00;7.93;;;;;;;10.03;100.00;94671.28;5064305;28;20045;-66
2022/10/29 03:45:13;;;;;;;17.30;7.83;;;;;;;9.97;100.00;94670.88;5050564;28;20040;-66
2022/10/29 03:47:39;;;;;;;17.58;8.50;;;;;;;9.94;100.00;94668.94;5064046;28;20420;-70
2022/10/29 03:50:07;;;;;;;21.02;8.75;;;;;;;9.83;100.00;94670.13;5059177;28;20040;-66
2022/10/29 03:52:34;;;;;;;15.82;7.80;;;;;;;9.88;100.00;94676.00;5056017;28;20094;-71
2022/10/29 03:55:01;;;;;;;15.32;7.55;;;;;;;9.87;100.00;94668.94;5050045;28;20041;-66
2022/10/29 03:57:27;;;;;;;15.43;7.37;;;;;;;9.87;100.00;94673.66;5050514;28;20075;-68
2022/10/29 03:59:55;;;;;;;17.05;8.38;;;;;;;9.59;100.00;94684.19;5064067;28;20074;-67
2022/10/29 04:02:22;;;;;;;14.43;7.72;;;;;;;9.75;100.00;94674.81;5057533;28;20047;-68
2022/10/29 04:04:49;;;;;;;18.20;7.80;;;;;;;9.73;100.00;94675.19;5050037;28;20107;-68
2022/10/29 04:07:16;;;;;;;16.55;7.55;;;;;;;9.74;100.00;94681.50;5063840;28;20049;-66
2022/10/29 04:09:42;;;;;;;17.03;7.63;;;;;;;9.71;100.00;94676.78;5054651;28;20044;-66
2022/10/29 04:12:09;;;;;;;15.18;7.70;;;;;;;9.63;100.00;94678.72;5050438;28;20070;-70
2022/10/29 04:14:35;;;;;;;17.38;8.63;;;;;;;9.61;100.00;94683.81;5050149;28;20414;-68
2022/10/29 04:17:11;;;;;;;16.83;8.35;;;;;;;9.59;100.00;94667.75;5048349;28;20137;-71
2022/10/29 04:19:39;;;;;;;16.33;8.43;;;;;;;9.61;100.00;94681.06;5050593;28;20106;-66
2022/10/29 04:22:06;;;;;;;16.53;8.07;;;;;;;9.63;100.00;94684.19;5049193;28;20843;-65
2022/10/29 04:24:53;;;;;;;17.02;7.85;;;;;;;9.67;100.00;94685.00;5049538;28;20049;-66
2022/10/29 04:27:39;;;;;;;16.90;8.45;;;;;;;9.67;100.00;94692.44;5050153;28;20493;-66
2022/10/29 04:30:26;;;;;;;16.45;7.57;;;;;;;9.62;100.00;94682.66;5062044;28;21046;-66
2022/10/29 04:32:57;;;;;;;15.48;8.13;;;;;;;9.57;100.00;94692.03;5050953;28;20049;-73
2022/10/29 04:35:28;;;;;;;15.73;7.70;;;;;;;9.52;100.00;94692.44;5050313;28;20540;-66
2022/10/29 04:37:54;;;;;;;15.05;7.78;;;;;;;9.55;100.00;94693.59;5049939;28;20048;-72
2022/10/29 04:40:23;;;;;;;16.27;8.40;;;;;;;9.47;100.00;94694.75;5048979;28;20041;-66
2022/10/29 04:42:50;;;;;;;16.00;8.05;;;;;;;9.48;100.00;94699.84;5054535;28;20060;-65
2022/10/29 04:45:17;;;;;;;14.60;7.50;;;;;;;9.54;100.00;94700.25;5070378;28;20056;-66
2022/10/29 04:47:43;;;;;;;13.10;7.40;;;;;;;9.50;100.00;94700.25;5055557;28;20105;-70
2022/10/29 04:50:10;;;;;;;19.83;7.80;;;;;;;9.51;100.00;94696.31;5054137;28;20471;-68
2022/10/29 04:52:36;;;;;;;15.63;7.97;;;;;;;9.47;100.00;94698.28;5054007;28;20045;-66
2022/10/29 04:55:03;;;;;;;15.07;7.82;;;;;;;9.47;100.00;94694.75;5053511;28;20102;-66
2022/10/29 04:57:30;;;;;;;16.73;7.47;;;;;;;9.44;100.00;94699.06;5052821;28;20098;-66
2022/10/29 04:59:57;;;;;;;17.17;7.90;;;;;;;9.39;100.00;94692.00;5053403;28;20051;-67
2022/10/29 05:02:23;;;;;;;16.65;7.55;;;;;;;9.34;100.00;94695.13;5056083;28;20074;-67
2022/10/29 05:04:50;;;;;;;15.60;8.10;;;;;;;9.29;100.00;94691.97;5057629;28;20048;-69
2022/10/29 05:07:16;;;;;;;16.58;8.02;;;;;;;9.32;100.00;94696.69;5062994;28;20045;-66
2022/10/29 05:09:43;;;;;;;14.07;7.07;;;;;;;9.19;100.00;94690.78;5062853;28;20412;-66
2022/10/29 05:12:10;;;;;;;14.27;7.60;;;;;;;9.23;100.00;94694.31;5059224;28;20049;-70
2022/10/29 05:14:36;;;;;;;17.05;7.53;;;;;;;9.23;100.00;94693.53;5053684;28;20045;-68
2022/10/29 05:17:03;;;;;;;15.77;7.55;;;;;;;9.22;100.00;94684.53;5053022;28;20049;-66
2022/10/29 05:19:30;;;;;;;14.60;7.18;;;;;;;9.18;100.00;94689.22;5067702;28;20045;-66
2022/10/29 05:21:56;;;;;;;17.23;7.80;;;;;;;9.16;100.00;94689.63;5053137;28;20052;-66
2022/10/29 05:24:23;;;;;;;15.87;7.63;;;;;;;9.17;100.00;94687.66;5053562;28;20051;-67
2022/10/29 05:26:49;;;;;;;20.30;8.45;;;;;;;9.11;100.00;94689.97;5053099;28;20094;-66
2022/10/29 05:29:16;;;;;;;15.93;8.02;;;;;;;9.15;100.00;94695.47;5053631;28;20049;-66
2022/10/29 05:31:43;;;;;;;21.10;8.60;;;;;;;9.11;100.00;94692.72;5068287;28;20519;-66
2022/10/29 05:34:09;;;;;;;17.17;7.95;;;;;;;9.11;100.00;94694.69;5068803;28;20043;-66
2022/10/29 05:36:36;;;;;;;19.43;8.23;;;;;;;9.03;100.00;94687.63;5067439;28;20053;-67
2022/10/29 05:39:02;;;;;;;19.35;8.77;;;;;;;9.05;100.00;94688.00;5052722;28;20041;-67
2022/10/29 05:41:29;;;;;;;19.10;8.60;;;;;;;9.06;100.00;94684.91;5053244;28;20057;-66
2022/10/29 05:43:56;;;;;;;15.30;7.95;;;;;;;9.09;100.00;94684.09;5052691;28;20489;-66
2022/10/29 05:46:22;;;;;;;18.13;8.43;;;;;;;9.08;100.00;94692.72;5052687;28;20047;-66
2022/10/29 05:48:49;;;;;;;19.73;7.63;;;;;;;8.99;100.00;94691.13;5052312;28;20049;-69
2022/10/29 05:51:16;;;;;;;15.55;7.85;;;;;;;8.99;100.00;94693.88;5053034;28;20045;-66
2022/10/29 05:53:42;;;;;;;16.50;7.72;;;;;;;9.03;100.00;94687.63;5052515;28;20094;-67
2022/10/29 05:56:09;;;;;;;17.40;8.10;;;;;;;8.98;100.00;94695.03;5052596;28;20056;-66
2022/10/29 05:58:35;;;;;;;18.33;7.90;;;;;;;8.96;100.00;94691.91;5052747;28;20460;-66
2022/10/29 06:01:06;;;;;;;16.13;7.90;;;;;;;8.90;100.00;94690.72;5051282;28;20048;-69
2022/10/29 06:03:33;;;;;;;16.83;7.63;;;;;;;8.96;100.00;94694.63;5053280;28;20044;-66
2022/10/29 06:05:59;;;;;;;19.00;7.80;;;;;;;8.98;100.00;94692.28;5065828;28;20101;-67
2022/10/29 06:08:26;;;;;;;18.90;8.10;;;;;;;8.92;100.00;94693.06;5052543;28;20059;-67
2022/10/29 06:10:53;;;;;;;22.23;8.50;;;;;;;8.95;100.00;94695.81;5067390;28;20053;-72
2022/10/29 06:13:21;;;;;;;15.47;7.83;;;;;;;8.97;100.00;94693.47;5051262;28;20040;-66
2022/10/29 06:15:55;;;;;;;19.80;9.52;;;;;;;8.97;100.00;94701.69;5051847;28;20101;-66
2022/10/29 06:18:21;;;;;;;21.23;9.13;;;;;;;9.05;100.00;94694.25;5062906;28;20037;-71
2022/10/29 06:20:48;;;;;;;20.48;8.60;;;;;;;9.12;100.00;94699.78;5055254;28;20043;-69
2022/10/29 06:23:15;;;;;;;43.45;17.83;;;;;;;9.16;100.00;94700.56;5051096;28;20486;-67
2022/10/29 06:25:41;;;;;;;83.43;29.70;;;;;;;9.24;100.00;94701.38;5051546;28;20051;-64
2022/10/29 06:28:17;;;;;;;85.95;38.33;;;;;;;9.36;100.00;94702.97;5051515;28;20053;-66
2022/10/29 06:30:49;;;;;;;84.47;44.08;;;;;;;9.40;100.00;94693.56;5051301;28;20110;-69
2022/10/29 06:33:18;;;;;;;31.05;18.30;;;;;;;9.47;100.00;94695.53;5055849;28;20048;-67
2022/10/29 06:35:45;;;;;;;20.20;10.20;;;;;;;9.54;100.00;94698.31;5068700;28;20044;-67
2022/10/29 06:38:12;;;;;;;18.43;8.17;;;;;;;9.66;100.00;94696.34;5052775;28;20426;-66
2022/10/29 06:40:42;;;;;;;15.93;7.78;;;;;;;9.67;100.00;94693.22;5050245;28;20417;-67
2022/10/29 06:43:10;;;;;;;14.35;7.55;;;;;;;9.86;100.00;94694.81;5059717;28;20094;-67
2022/10/29 06:45:37;;;;;;;13.60;7.90;;;;;;;9.97;100.00;94687.34;5051760;28;20131;-67
2022/10/29 06:48:04;;;;;;;15.85;7.50;;;;;;;10.05;100.00;94692.84;5050524;28;20087;-66
2022/10/29 06:50:31;;;;;;;22.87;13.27;;;;;;;9.99;100.00;94686.94;5051986;28;20496;-67
2022/10/29 06:53:00;;;;;;;16.35;8.40;;;;;;;10.09;100.00;94690.88;5051064;28;20045;-66
2022/10/29 06:55:27;;;;;;;17.92;8.40;;;;;;;10.22;100.00;94700.25;5051495;28;20045;-66
2022/10/29 06:57:56;;;;;;;22.20;10.98;;;;;;;10.29;100.00;94697.50;5051304;28;20055;-66
2022/10/29 07:00:23;;;;;;;17.08;8.20;;;;;;;10.78;100.00;94698.59;5053426;28;20071;-66
2022/10/29 07:02:50;;;;;;;24.40;12.07;;;;;;;11.07;100.00;94689.47;5058490;28;20118;-69
2022/10/29 07:05:17;;;;;;;20.23;10.20;;;;;;;11.86;97.29;94695.22;5051446;28;20074;-66
2022/10/29 07:07:44;;;;;;;16.80;9.30;;;;;;;12.93;94.00;94701.69;5058444;28;20056;-67
2022/10/29 07:10:11;;;;;;;16.58;8.75;;;;;;;13.79;87.69;94702.56;5064499;28;20044;-67
2022/10/29 07:12:41;;;;;;;16.65;7.40;;;;;;;14.72;83.54;94697.50;5051437;28;20051;-66
2022/10/29 07:15:11;;;;;;;11.73;6.47;;;;;;;15.32;78.36;94694.75;5050538;28;20390;-66
2022/10/29 07:17:38;;;;;;;12.07;7.20;;;;;;;14.64;79.65;94691.31;5050990;28;20057;-66
2022/10/29 07:20:06;;;;;;;14.50;8.23;;;;;;;15.11;77.04;94699.50;5063177;28;20632;-66
2022/10/29 07:22:33;;;;;;;13.27;7.40;;;;;;;15.84;73.42;94698.78;5051737;28;20063;-67
2022/10/29 07:25:00;;;;;;;15.73;8.10;;;;;;;16.16;72.39;94693.25;5050394;28;20121;-68
2022/10/29 07:27:27;;;;;;;12.60;7.00;;;;;;;16.32;70.10;94698.00;5051013;28;20048;-67
2022/10/29 07:29:54;;;;;;;13.07;6.18;;;;;;;17.40;67.50;94699.91;5050378;28;20041;-67
2022/10/29 07:32:22;;;;;;;11.00;6.20;;;;;;;17.32;66.98;94708.44;5050518;28;20045;-67
2022/10/29 07:34:49;;;;;;;11.57;5.88;;;;;;;17.64;64.95;94700.41;5050377;28;20056;-67
2022/10/29 07:37:15;;;;;;;13.73;6.20;;;;;;;18.68;62.58;94702.69;5050616;28;20090;-68
2022/10/29 07:39:42;;;;;;;10.63;5.53;;;;;;;19.29;60.31;94718.03;5050001;28;20057;-67
2022/10/29 07:42:09;;;;;;;9.20;5.50;;;;;;;20.07;57.70;94705.19;5050878;28;20045;-67
2022/10/29 07:44:35;;;;;;;13.63;6.05;;;;;;;19.30;60.04;94713.25;5050438;28;20051;-75
2022/10/29 07:47:02;;;;;;;10.55;5.75;;;;;;;20.13;56.66;94703.34;5063178;28;20040;-66
2022/10/29 07:49:29;;;;;;;11.07;5.30;;;;;;;20.82;54.69;94704.16;5069359;28;20055;-67
2022/10/29 07:51:55;;;;;;;11.53;5.17;;;;;;;21.21;53.56;94704.50;5050614;28;20049;-67
2022/10/29 07:54:22;;;;;;;14.43;4.88;;;;;;;22.17;51.44;94701.31;5050251;28;20043;-67
2022/10/29 07:56:51;;;;;;;11.07;4.93;;;;;;;21.08;53.63;94699.06;5049794;28;20110;-69
2022/10/29 07:59:18;;;;;;;8.90;4.63;;;;;;;21.93;51.93;94701.25;5050244;28;20047;-67
2022/10/29 08:01:45;;;;;;;10.20;4.88;;;;;;;22.32;50.65;94704.25;5060047;28;20059;-68
2022/10/29 08:04:12;;;;;;;8.53;4.30;;;;;;;23.22;47.45;94703.38;5050404;28;20051;-68
2022/10/29 08:06:39;;;;;;;13.02;4.50;;;;;;;23.31;47.32;94711.69;5058787;28;20044;-69
2022/10/29 08:09:06;;;;;;;11.90;4.90;;;;;;;22.53;48.69;94706.00;5054964;28;20658;-70
2022/10/29 08:11:33;;;;;;;12.07;4.90;;;;;;;22.46;49.41;94705.59;5057668;28;20059;-68
2022/10/29 08:14:00;;;;;;;11.43;5.55;;;;;;;22.64;48.06;94704.72;5049649;28;20048;-70
2022/10/29 08:16:26;;;;;;;8.80;5.03;;;;;;;22.37;49.30;94695.19;5061285;28;20040;-67
2022/10/29 08:18:53;;;;;;;11.30;5.28;;;;;;;23.09;47.85;94709.22;5052424;28;20547;-67
2022/10/29 08:21:20;;;;;;;9.70;4.90;;;;;;;22.30;48.85;94703.97;5049247;28;20057;-70
2022/10/29 08:23:47;;;;;;;10.13;4.80;;;;;;;22.64;48.36;94702.69;5049685;28;20566;-68
2022/10/29 08:26:14;;;;;;;17.40;5.63;;;;;;;22.86;47.85;94696.78;5049909;28;20417;-68
2022/10/29 08:28:43;;;;;;;11.40;5.00;;;;;;;23.89;45.46;94706.66;5063610;28;20052;-68
2022/10/29 08:31:10;;;;;;;12.45;5.13;;;;;;;24.61;44.65;94699.09;5050132;28;20051;-68
2022/10/29 08:33:37;;;;;;;12.82;5.55;;;;;;;24.83;43.73;94693.00;5062128;28;20044;-68
2022/10/29 08:36:04;;;;;;;11.75;5.35;;;;;;;23.78;45.89;94694.47;5065462;28;20053;-68
2022/10/29 08:38:30;;;;;;;11.50;5.82;;;;;;;23.80;46.67;94695.53;5050024;28;20053;-68
2022/10/29 08:41:14;;;;;;;10.87;5.20;;;;;;;25.44;42.87;94689.41;5049154;28;20399;-69
2022/10/29 08:43:41;;;;;;;10.75;5.28;;;;;;;26.05;42.41;94692.06;5049811;28;20049;-70
2022/10/29 08:46:22;;;;;;;10.32;5.65;;;;;;;27.01;40.09;94695.50;5049562;28;20053;-69
2022/10/29 08:48:55;;;;;;;15.65;5.57;;;;;;;27.23;38.36;94699.69;5049340;28;20053;-69
2022/10/29 08:51:35;;;;;;;11.27;5.32;;;;;;;27.52;37.54;94692.13;5062577;28;20122;-69
2022/10/29 08:54:02;;;;;;;11.50;5.73;;;;;;;26.52;39.98;94694.69;5049368;28;20037;-67
2022/10/29 08:56:53;;;;;;;12.32;5.63;;;;;;;26.99;38.68;94697.28;5049759;28;20053;-69
2022/10/29 08:59:24;;;;;;;12.85;5.30;;;;;;;25.66;41.67;94686.06;5050071;28;20106;-70
2022/10/29 09:01:52;;;;;;;12.05;5.32;;;;;;;26.48;40.01;94686.50;5056272;28;20049;-69
2022/10/29 09:04:19;;;;;;;11.68;5.80;;;;;;;27.46;39.03;94689.28;5049956;28;20051;-66
2022/10/29 09:07:04;;;;;;;12.27;5.90;;;;;;;27.64;37.95;94685.97;5053703;28;20485;-69
2022/10/29 09:09:40;;;;;;;11.77;5.40;;;;;;;29.20;36.04;94680.00;5059278;28;20067;-69
2022/10/29 09:12:13;;;;;;;11.13;5.03;;;;;;;28.77;35.46;94686.00;5051259;28;21665;-68
2022/10/29 09:15:17;;;;;;;10.60;5.07;;;;;;;26.29;39.94;94682.53;5049732;28;20064;-70
2022/10/29 09:18:10;;;;;;;11.63;5.05;;;;;;;24.64;42.93;94686.91;5049089;28;20048;-68
2022/10/29 09:21:08;;;;;;;13.70;5.30;;;;;;;24.87;43.57;94680.31;5067613;28;20074;-68
2022/10/29 09:24:16;;;;;;;12.30;5.20;;;;;;;25.39;42.46;94684.50;5084371;28;20044;-69
2022/10/29 09:26:48;;;;;;;11.60;5.05;;;;;;;24.07;45.23;94679.66;5077793;28;20628;-69
2022/10/29 09:29:36;;;;;;;14.20;5.20;;;;;;;25.22;43.15;94685.09;5049728;28;20041;-66
2022/10/29 09:32:15;;;;;;;12.27;5.07;;;;;;;25.78;41.81;94679.28;5048588;28;20039;-66
2022/10/29 09:34:51;;;;;;;14.07;5.40;;;;;;;27.75;38.63;94673.19;5052740;28;20049;-66
2022/10/29 09:37:34;;;;;;;12.07;4.50;;;;;;;29.55;35.29;94672.88;5069348;28;20037;-63
2022/10/29 09:40:05;;;;;;;11.75;4.07;;;;;;;30.16;33.73;94665.25;5055882;28;20041;-68
2022/10/29 09:42:37;;;;;;;12.68;4.20;;;;;;;29.59;34.00;94664.88;5053159;28;20080;-70
2022/10/29 09:45:09;;;;;;;14.80;4.22;;;;;;;30.18;33.59;94661.91;5052406;28;20040;-66
2022/10/29 09:48:13;;;;;;;13.23;4.00;;;;;;;28.98;34.14;94663.84;5052177;28;20087;-71
2022/10/29 09:50:56;;;;;;;11.25;3.70;;;;;;;28.79;34.20;94660.06;5044935;28;20900;-72
2022/10/29 09:53:23;;;;;;;13.38;3.97;;;;;;;29.29;33.64;94659.13;5066105;28;20710;-68
2022/10/29 09:55:52;;;;;;;11.13;4.25;;;;;;;29.33;33.66;94653.97;5052019;28;20064;-70
2022/10/29 09:58:22;;;;;;;13.05;4.18;;;;;;;30.43;32.13;94654.25;5052875;28;20067;-68
2022/10/29 10:00:51;;;;;;;9.33;3.73;;;;;;;31.04;31.58;94649.97;5063703;28;20393;-68
2022/10/29 10:03:36;;;;;;;11.60;3.80;;;;;;;30.84;31.47;94645.56;5060635;28;20045;-69
2022/10/29 10:06:06;;;;;;;14.23;3.97;;;;;;;31.86;30.12;94644.25;5056379;28;20049;-69
2022/10/29 10:08:34;;;;;;;12.40;3.85;;;;;;;32.34;29.90;94638.88;5068581;28;20036;-76
2022/10/29 10:11:03;;;;;;;12.10;3.70;;;;;;;33.21;29.15;94641.13;5063231;28;20122;-69
2022/10/29 10:13:33;;;;;;;15.60;3.60;;;;;;;33.54;27.31;94633.19;5059844;28;20044;-68
2022/10/29 10:16:02;;;;;;;11.75;3.70;;;;;;;33.67;27.76;94627.50;5051916;28;20036;-68
2022/10/29 10:18:32;;;;;;;10.70;4.10;;;;;;;34.27;26.83;94625.81;5051504;28;20048;-73
2022/10/29 10:21:12;;;;;;;8.52;3.35;;;;;;;32.61;27.61;94623.41;5053935;28;20046;-68
2022/10/29 10:23:50;;;;;;;11.23;3.13;;;;;;;32.49;27.26;94619.22;5056366;28;20041;-68
2022/10/29 10:26:40;;;;;;;10.77;3.07;;;;;;;31.64;27.35;94617.00;5061029;28;20586;-69
2022/10/29 10:29:16;;;;;;;9.35;3.05;;;;;;;31.65;28.65;94624.19;5049144;28;20052;-69
2022/10/29 10:31:45;;;;;;;10.55;3.35;;;;;;;30.25;29.75;94616.78;5051588;28;20047;-73
2022/10/29 10:34:21;;;;;;;11.00;3.20;;;;;;;30.96;28.06;94611.44;5051820;28;20409;-69
2022/10/29 10:36:54;;;;;;;11.65;3.28;;;;;;;30.28;29.35;94617.78;5058768;28;20056;-70
2022/10/29 10:39:35;;;;;;;10.50;2.60;;;;;;;30.41;26.49;94608.69;5051669;28;20056;-69
2022/10/29 10:42:05;;;;;;;14.60;2.63;;;;;;;30.20;27.92;94614.78;5051285;28;20440;-71
2022/10/29 10:44:34;;;;;;;10.32;2.50;;;;;;;30.15;27.71;94609.19;5053227;28;20061;-72
2022/10/29 10:47:05;;;;;;;9.95;2.60;;;;;;;29.38;29.63;94605.09;5059553;28;20057;-69
2022/10/29 10:49:37;;;;;;;12.20;2.97;;;;;;;29.15;29.86;94598.81;5051042;28;20060;-69
2022/10/29 10:52:15;;;;;;;10.53;2.80;;;;;;;29.87;29.10;94599.63;5062581;28;20390;-73
2022/10/29 10:54:55;;;;;;;12.27;2.67;;;;;;;31.45;27.34;94602.81;5050765;28;20056;-70
2022/10/29 10:57:25;;;;;;;9.55;2.60;;;;;;;31.16;28.12;94599.59;5050353;28;20132;-73
2022/10/29 11:00:18;;;;;;;9.93;3.10;;;;;;;31.27;27.79;94604.34;5046417;28;20470;-70
2022/10/29 11:03:07;;;;;;;11.18;2.92;;;;;;;31.40;27.07;94593.06;5050408;28;20749;-69
2022/10/29 11:05:40;;;;;;;12.00;2.90;;;;;;;31.32;27.37;94588.56;5049402;28;20040;-76
2022/10/29 11:08:13;;;;;;;12.55;2.70;;;;;;;30.45;27.78;94580.84;5054980;28;20501;-69
2022/10/29 11:10:51;;;;;;;14.10;2.95;;;;;;;29.04;29.39;94585.47;5079537;28;20045;-70
2022/10/29 11:13:22;;;;;;;13.43;2.70;;;;;;;29.58;28.65;94584.16;5050245;28;20052;-69
2022/10/29 11:16:14;;;;;;;11.80;2.78;;;;;;;30.06;28.23;94581.97;5050655;28;20094;-68
2022/10/29 11:18:53;;;;;;;15.00;2.73;;;;;;;30.19;27.16;94579.28;5062461;28;20052;-71
2022/10/29 11:21:49;;;;;;;11.68;2.30;;;;;;;30.15;28.21;94580.88;5054765;28;20044;-73
2022/10/29 11:25:01;;;;;;;10.10;2.85;;;;;;;29.89;27.99;94578.53;5078256;28;20866;-72
2022/10/29 11:27:39;;;;;;;9.65;2.65;;;;;;;30.97;27.11;94574.06;5041127;28;20045;-69
2022/10/29 11:30:12;;;;;;;12.02;2.50;;;;;;;30.50;27.34;94570.75;5049246;28;20126;-72
2022/10/29 11:33:06;;;;;;;10.40;2.47;;;;;;;30.39;27.64;94565.97;5049417;28;20110;-69
2022/10/29 11:35:53;;;;;;;15.07;2.55;;;;;;;30.12;26.94;94562.84;5054578;28;20041;-68
2022/10/29 11:38:47;;;;;;;11.57;2.45;;;;;;;29.96;27.56;94569.44;5056487;28;20455;-65
2022/10/29 11:41:30;;;;;;;12.57;2.70;;;;;;;28.61;29.40;94562.56;5073635;28;20037;-74
2022/10/29 11:43:57;;;;;;;10.18;2.58;;;;;;;28.75;29.45;94560.69;5058138;28;20474;-68